createdAt,value
2023-03-16T00:00:17.610Z,39.85
2023-03-16T00:00:39.731Z,39.67
2023-03-16T00:01:05.882Z,39.69
2023-03-16T00:01:27.901Z,39.53
2023-03-16T00:01:49.909Z,39.74
2023-03-16T00:02:12.890Z,39.74
2023-03-16T00:02:34.501Z,39.79
2023-03-16T00:02:58.522Z,39.58
2023-03-16T00:03:20.644Z,39.48
2023-03-16T00:03:42.845Z,39.37
2023-03-16T00:04:05.029Z,39.35
2023-03-16T00:04:26.844Z,39.40
2023-03-16T00:04:50.004Z,39.39
2023-03-16T00:05:14.064Z,39.43
2023-03-16T00:05:35.740Z,39.43
2023-03-16T00:05:58.366Z,39.64
2023-03-16T00:06:20.764Z,39.76
2023-03-16T00:06:42.634Z,39.67
2023-03-16T00:07:06.419Z,39.45
2023-03-16T00:07:28.256Z,39.50
2023-03-16T00:07:50.903Z,39.43
2023-03-16T00:08:13.093Z,39.45
2023-03-16T00:08:35.522Z,39.44
2023-03-16T00:08:59.099Z,39.64
2023-03-16T00:09:21.738Z,39.55
2023-03-16T00:09:43.601Z,39.74
2023-03-16T00:10:07.144Z,39.75
2023-03-16T00:10:29.249Z,39.62
2023-03-16T00:10:54.339Z,39.66
2023-03-16T00:11:16.450Z,39.76
2023-03-16T00:11:38.437Z,39.80
2023-03-16T00:12:03.120Z,39.83
2023-03-16T00:12:26.236Z,39.64
2023-03-16T00:12:47.776Z,39.67
2023-03-16T00:13:09.892Z,39.83
2023-03-16T00:13:32.525Z,40.00
2023-03-16T00:13:55.623Z,39.92
2023-03-16T00:14:17.241Z,39.92
2023-03-16T00:14:38.814Z,40.00
2023-03-16T00:15:01.924Z,40.00
2023-03-16T00:15:23.586Z,39.94
2023-03-16T00:15:51.403Z,39.76
2023-03-16T00:16:16.841Z,39.85
2023-03-16T00:16:39.258Z,39.96
2023-03-16T00:17:02.014Z,40.03
2023-03-16T00:17:26.576Z,40.25
2023-03-16T00:17:48.719Z,40.11
2023-03-16T00:18:11.728Z,40.12
2023-03-16T00:18:38.820Z,40.09
2023-03-16T00:19:03.648Z,40.22
2023-03-16T00:19:25.260Z,40.31
2023-03-16T00:19:47.732Z,40.23
2023-03-16T00:20:11.799Z,40.17
2023-03-16T00:20:34.450Z,40.23
2023-03-16T00:20:58.228Z,40.41
2023-03-16T00:21:20.129Z,40.58
2023-03-16T00:21:41.777Z,40.39
2023-03-16T00:22:03.419Z,40.34
2023-03-16T00:22:28.024Z,40.22
2023-03-16T00:22:49.787Z,40.15
2023-03-16T00:23:11.913Z,40.17
2023-03-16T00:23:35.936Z,40.23
2023-03-16T00:23:59.177Z,40.13
2023-03-16T00:24:21.056Z,40.21
2023-03-16T00:24:43.881Z,40.31
2023-03-16T00:25:07.002Z,40.55
2023-03-16T00:25:28.627Z,40.57
2023-03-16T00:25:53.713Z,40.56
2023-03-16T00:26:15.358Z,40.51
2023-03-16T00:26:36.992Z,40.69
2023-03-16T00:26:58.587Z,40.42
2023-03-16T00:27:22.644Z,40.15
2023-03-16T00:27:45.533Z,40.32
2023-03-16T00:28:07.234Z,40.28
2023-03-16T00:28:34.623Z,40.32
2023-03-16T00:28:57.831Z,40.35
2023-03-16T00:29:19.512Z,40.42
2023-03-16T00:29:47.424Z,40.38
2023-03-16T00:30:10.312Z,40.33
2023-03-16T00:30:32.930Z,40.38
2023-03-16T00:30:58.931Z,40.48
2023-03-16T00:31:20.766Z,40.65
2023-03-16T00:31:44.077Z,40.85
2023-03-16T00:32:07.521Z,40.56
2023-03-16T00:32:33.484Z,40.68
2023-03-16T00:32:55.245Z,40.77
2023-03-16T00:33:19.713Z,40.84
2023-03-16T00:33:44.822Z,40.90
2023-03-16T00:34:06.434Z,40.98
2023-03-16T00:34:38.749Z,41.04
2023-03-16T00:35:01.960Z,41.10
2023-03-16T00:35:26.392Z,41.35
2023-03-16T00:35:50.226Z,41.30
2023-03-16T00:36:12.671Z,41.37
2023-03-16T00:36:38.127Z,41.34
2023-03-16T00:37:00.749Z,41.51
2023-03-16T00:37:25.013Z,41.37
2023-03-16T00:37:46.868Z,41.45
2023-03-16T00:38:09.587Z,41.29
2023-03-16T00:38:35.305Z,41.31
2023-03-16T00:38:56.867Z,41.34
2023-03-16T00:39:20.497Z,41.33
2023-03-16T00:39:42.274Z,41.42
2023-03-16T00:40:11.416Z,41.37
2023-03-16T00:40:33.838Z,41.14
2023-03-16T00:40:56.130Z,41.10
2023-03-16T00:41:19.098Z,41.10
2023-03-16T00:41:42.903Z,41.11
2023-03-16T00:42:04.597Z,41.20
2023-03-16T00:42:29.353Z,41.24
2023-03-16T00:42:50.976Z,41.15
2023-03-16T00:43:18.509Z,41.11
2023-03-16T00:43:41.312Z,40.91
2023-03-16T00:44:03.726Z,41.15
2023-03-16T00:44:25.315Z,41.40
2023-03-16T00:44:47.599Z,41.30
2023-03-16T00:45:11.758Z,41.30
2023-03-16T00:45:33.411Z,41.22
2023-03-16T00:45:58.805Z,41.15
2023-03-16T00:46:26.382Z,41.21
2023-03-16T00:46:48.035Z,41.32
2023-03-16T00:47:14.299Z,41.21
2023-03-16T00:47:36.262Z,41.09
2023-03-16T00:47:58.890Z,41.22
2023-03-16T00:48:24.423Z,41.21
2023-03-16T00:48:47.239Z,41.21
2023-03-16T00:49:09.376Z,41.21
2023-03-16T00:49:34.824Z,41.16
2023-03-16T00:49:58.108Z,41.02
2023-03-16T00:50:23.296Z,40.93
2023-03-16T00:50:45.108Z,41.39
2023-03-16T00:51:09.100Z,41.32
2023-03-16T00:51:33.854Z,41.24
2023-03-16T00:51:55.461Z,41.20
2023-03-16T00:52:17.293Z,41.19
2023-03-16T00:52:38.903Z,41.16
2023-03-16T00:53:03.490Z,41.17
2023-03-16T00:53:25.162Z,41.17
2023-03-16T00:53:47.403Z,41.25
2023-03-16T00:54:09.073Z,41.34
2023-03-16T00:54:32.780Z,41.21
2023-03-16T00:54:57.491Z,40.96
2023-03-16T00:55:19.312Z,41.13
2023-03-16T00:55:41.532Z,40.90
2023-03-16T00:56:04.427Z,40.90
2023-03-16T00:56:27.423Z,40.83
2023-03-16T00:56:49.112Z,40.86
2023-03-16T00:57:12.306Z,40.95
2023-03-16T00:57:35.502Z,40.72
2023-03-16T00:57:57.212Z,40.64
2023-03-16T00:58:20.068Z,40.87
2023-03-16T00:58:43.283Z,40.91
2023-03-16T00:59:08.784Z,41.02
2023-03-16T00:59:31.221Z,40.62
2023-03-16T00:59:52.978Z,40.60
2023-03-16T01:00:17.071Z,40.33
2023-03-16T01:00:40.382Z,40.30
2023-03-16T01:01:04.782Z,40.17
2023-03-16T01:01:27.361Z,40.30
2023-03-16T01:01:49.431Z,40.13
2023-03-16T01:02:12.400Z,40.33
2023-03-16T01:02:37.205Z,40.65
2023-03-16T01:02:58.859Z,40.64
2023-03-16T01:03:20.755Z,40.47
2023-03-16T01:03:44.841Z,40.42
2023-03-16T01:04:09.358Z,40.31
2023-03-16T01:04:32.471Z,39.97
2023-03-16T01:04:54.898Z,39.97
2023-03-16T01:05:16.728Z,40.15
2023-03-16T01:05:41.825Z,40.23
2023-03-16T01:06:04.529Z,40.19
2023-03-16T01:06:26.352Z,39.96
2023-03-16T01:06:48.985Z,40.02
2023-03-16T01:07:14.627Z,40.06
2023-03-16T01:07:36.320Z,39.98
2023-03-16T01:07:57.936Z,40.13
2023-03-16T01:08:19.620Z,40.12
2023-03-16T01:08:42.831Z,40.14
2023-03-16T01:09:05.589Z,40.01
2023-03-16T01:09:27.367Z,40.13
2023-03-16T01:09:50.362Z,40.11
2023-03-16T01:10:14.011Z,40.25
2023-03-16T01:10:36.623Z,40.31
2023-03-16T01:11:03.535Z,40.37
2023-03-16T01:11:25.165Z,40.23
2023-03-16T01:11:50.765Z,40.25
2023-03-16T01:12:14.698Z,40.51
2023-03-16T01:12:36.505Z,40.60
2023-03-16T01:12:58.351Z,40.75
2023-03-16T01:13:23.491Z,40.84
2023-03-16T01:13:46.889Z,40.75
2023-03-16T01:14:08.747Z,40.54
2023-03-16T01:14:30.626Z,40.54
2023-03-16T01:14:53.659Z,40.51
2023-03-16T01:15:15.376Z,40.54
2023-03-16T01:16:34.366Z,40.88
2023-03-16T01:16:57.183Z,40.89
2023-03-16T01:17:18.872Z,40.80
2023-03-16T01:17:41.381Z,40.75
2023-03-16T01:18:04.875Z,40.76
2023-03-16T01:18:28.563Z,40.69
2023-03-16T01:18:52.565Z,40.79
2023-03-16T01:19:14.320Z,40.71
2023-03-16T01:19:37.444Z,40.71
2023-03-16T01:20:00.705Z,40.58
2023-03-16T01:20:22.882Z,40.54
2023-03-16T01:20:50.567Z,40.57
2023-03-16T01:21:13.884Z,40.37
2023-03-16T01:21:38.180Z,40.31
2023-03-16T01:21:59.921Z,40.32
2023-03-16T01:22:21.596Z,40.14
2023-03-16T01:22:43.273Z,40.14
2023-03-16T01:23:05.464Z,40.03
2023-03-16T01:23:30.111Z,40.15
2023-03-16T01:23:53.683Z,40.13
2023-03-16T01:24:16.705Z,40.07
2023-03-16T01:24:39.964Z,40.21
2023-03-16T01:25:02.570Z,40.20
2023-03-16T01:25:24.271Z,40.27
2023-03-16T01:25:52.733Z,39.91
2023-03-16T01:26:16.343Z,39.91
2023-03-16T01:26:38.997Z,39.85
2023-03-16T01:27:01.396Z,39.81
2023-03-16T01:27:26.238Z,39.94
2023-03-16T01:27:48.170Z,39.88
2023-03-16T01:28:11.210Z,39.95
2023-03-16T01:28:34.188Z,39.95
2023-03-16T01:28:55.857Z,40.06
2023-03-16T01:29:18.086Z,40.07
2023-03-16T01:29:40.376Z,40.13
2023-03-16T01:30:03.164Z,39.99
2023-03-16T01:30:25.404Z,40.12
2023-03-16T01:30:47.857Z,40.22
2023-03-16T01:31:11.673Z,40.12
2023-03-16T01:31:33.418Z,40.19
2023-03-16T01:31:56.381Z,40.35
2023-03-16T01:32:19.317Z,40.38
2023-03-16T01:32:41.744Z,40.42
2023-03-16T01:33:03.860Z,40.60
2023-03-16T01:33:27.345Z,40.59
2023-03-16T01:33:52.736Z,40.67
2023-03-16T01:34:18.789Z,40.65
2023-03-16T01:34:40.576Z,40.48
2023-03-16T01:35:02.859Z,40.45
2023-03-16T01:35:25.505Z,40.31
2023-03-16T01:35:52.417Z,40.20
2023-03-16T01:36:17.228Z,40.21
2023-03-16T01:36:48.879Z,40.33
2023-03-16T01:37:19.011Z,40.36
2023-03-16T01:37:53.778Z,40.22
2023-03-16T01:38:19.566Z,40.14
2023-03-16T01:38:41.763Z,40.06
2023-03-16T01:39:05.041Z,40.17
2023-03-16T01:39:30.946Z,40.11
2023-03-16T01:39:52.694Z,40.54
2023-03-16T01:40:14.554Z,40.41
2023-03-16T01:40:38.182Z,40.31
2023-03-16T01:41:01.042Z,40.49
2023-03-16T01:41:22.902Z,40.20
2023-03-16T01:41:45.801Z,40.13
2023-03-16T01:42:08.459Z,40.31
2023-03-16T01:42:30.065Z,40.44
2023-03-16T01:43:01.262Z,40.68
2023-03-16T01:43:26.759Z,40.64
2023-03-16T01:43:51.842Z,40.64
2023-03-16T01:44:14.700Z,40.53
2023-03-16T01:44:56.039Z,40.31
2023-03-16T01:46:09.998Z,40.20
2023-03-16T01:46:35.335Z,39.95
2023-03-16T01:46:57.426Z,40.17
2023-03-16T01:47:20.078Z,40.14
2023-03-16T01:47:42.547Z,40.11
2023-03-16T01:48:08.353Z,39.94
2023-03-16T01:48:37.159Z,40.04
2023-03-16T01:49:09.053Z,39.98
2023-03-16T01:49:34.255Z,40.02
2023-03-16T01:49:57.570Z,39.99
2023-03-16T01:50:22.661Z,40.04
2023-03-16T01:50:45.697Z,40.09
2023-03-16T01:51:10.476Z,40.17
2023-03-16T01:51:36.614Z,40.16
2023-03-16T01:52:03.504Z,40.28
2023-03-16T01:52:33.283Z,40.20
2023-03-16T01:52:55.115Z,40.26
2023-03-16T01:53:18.291Z,40.25
2023-03-16T01:53:44.540Z,40.34
2023-03-16T01:54:11.145Z,40.41
2023-03-16T01:54:36.329Z,40.49
2023-03-16T01:55:03.953Z,40.64
2023-03-16T01:55:27.477Z,40.75
2023-03-16T01:55:51.152Z,40.88
2023-03-16T01:56:19.711Z,40.98
2023-03-16T01:56:45.722Z,41.16
2023-03-16T01:57:11.698Z,41.20
2023-03-16T01:57:39.152Z,41.08
2023-03-16T01:58:01.916Z,41.19
2023-03-16T01:58:25.362Z,41.31
2023-03-16T01:58:47.420Z,41.13
2023-03-16T01:59:15.049Z,41.12
2023-03-16T01:59:41.395Z,40.88
2023-03-16T02:00:09.913Z,40.72
2023-03-16T02:00:41.860Z,40.58
2023-03-16T02:01:13.907Z,40.66
2023-03-16T02:01:36.413Z,40.63
2023-03-16T02:02:00.411Z,40.55
2023-03-16T02:02:28.376Z,40.57
2023-03-16T02:02:57.916Z,40.37
2023-03-16T02:03:30.025Z,40.36
2023-03-16T02:04:08.024Z,40.37
2023-03-16T02:04:44.443Z,40.32
2023-03-16T02:05:13.304Z,40.31
2023-03-16T02:05:42.326Z,40.52
2023-03-16T02:06:09.337Z,40.48
2023-03-16T02:06:32.858Z,40.69
2023-03-16T02:06:56.546Z,40.44
2023-03-16T02:07:20.944Z,40.46
2023-03-16T02:07:47.878Z,40.48
2023-03-16T02:08:12.456Z,40.46
2023-03-16T02:08:37.464Z,40.46
2023-03-16T02:09:00.453Z,40.43
2023-03-16T02:09:23.739Z,40.52
2023-03-16T02:09:49.357Z,40.47
2023-03-16T02:10:14.284Z,40.47
2023-03-16T02:10:38.048Z,40.49
2023-03-16T02:11:00.771Z,40.63
2023-03-16T02:11:36.469Z,40.51
2023-03-16T02:12:08.171Z,40.48
2023-03-16T02:12:36.231Z,40.33
2023-03-16T02:12:58.709Z,40.46
2023-03-16T02:13:21.680Z,40.32
2023-03-16T02:13:43.946Z,40.36
2023-03-16T02:14:09.561Z,40.35
2023-03-16T02:14:32.254Z,40.31
2023-03-16T02:14:53.964Z,40.33
2023-03-16T02:15:15.908Z,40.31
2023-03-16T02:15:38.156Z,40.22
2023-03-16T02:16:00.056Z,40.20
2023-03-16T02:16:22.897Z,40.12
2023-03-16T02:16:45.357Z,40.02
2023-03-16T02:17:07.680Z,40.13
2023-03-16T02:17:32.994Z,40.23
2023-03-16T02:18:00.626Z,40.46
2023-03-16T02:18:23.016Z,40.63
2023-03-16T02:18:46.060Z,40.49
2023-03-16T02:19:16.915Z,40.46
2023-03-16T02:19:47.533Z,40.60
2023-03-16T02:20:23.125Z,40.45
2023-03-16T02:20:51.557Z,40.59
2023-03-16T02:21:19.341Z,40.55
2023-03-16T02:21:50.014Z,40.60
2023-03-16T02:22:13.917Z,40.55
2023-03-16T02:22:37.784Z,40.61
2023-03-16T02:23:00.203Z,40.66
2023-03-16T02:23:24.022Z,40.72
2023-03-16T02:23:50.699Z,40.71
2023-03-16T02:24:12.509Z,40.72
2023-03-16T02:24:35.466Z,40.89
2023-03-16T02:24:57.230Z,40.95
2023-03-16T02:25:20.235Z,40.86
2023-03-16T02:25:51.678Z,40.75
2023-03-16T02:26:22.896Z,40.76
2023-03-16T02:26:48.519Z,40.52
2023-03-16T02:27:30.019Z,40.29
2023-03-16T02:28:03.197Z,40.23
2023-03-16T02:28:34.153Z,40.26
2023-03-16T02:29:11.529Z,40.26
2023-03-16T02:29:56.746Z,40.50
2023-03-16T02:30:22.965Z,40.40
2023-03-16T02:30:52.733Z,40.42
2023-03-16T02:31:15.594Z,40.37
2023-03-16T02:31:37.583Z,40.29
2023-03-16T02:32:02.846Z,40.17
2023-03-16T02:32:29.081Z,40.23
2023-03-16T02:32:53.269Z,40.25
2023-03-16T02:33:18.759Z,40.29
2023-03-16T02:33:42.558Z,40.11
2023-03-16T02:34:04.784Z,40.02
2023-03-16T02:34:27.245Z,40.01
2023-03-16T02:34:49.228Z,40.11
2023-03-16T02:35:12.851Z,40.18
2023-03-16T02:35:35.712Z,40.23
2023-03-16T02:35:58.325Z,40.08
2023-03-16T02:36:20.882Z,40.13
2023-03-16T02:36:47.975Z,40.17
2023-03-16T02:37:12.958Z,40.21
2023-03-16T02:37:35.729Z,40.31
2023-03-16T02:37:57.871Z,40.31
2023-03-16T02:38:24.561Z,40.46
2023-03-16T02:38:48.280Z,40.42
2023-03-16T02:39:12.363Z,40.49
2023-03-16T02:39:44.015Z,40.41
2023-03-16T02:40:22.502Z,40.52
2023-03-16T02:40:55.682Z,40.52
2023-03-16T02:41:19.818Z,40.10
2023-03-16T02:41:48.757Z,40.25
2023-03-16T02:42:15.350Z,40.41
2023-03-16T02:42:37.058Z,40.31
2023-03-16T02:43:02.991Z,40.23
2023-03-16T02:43:30.178Z,40.31
2023-03-16T02:44:04.638Z,40.42
2023-03-16T02:44:33.948Z,40.33
2023-03-16T02:45:01.340Z,40.22
2023-03-16T02:45:33.480Z,40.14
2023-03-16T02:45:58.569Z,40.24
2023-03-16T02:46:27.856Z,40.45
2023-03-16T02:46:52.193Z,40.38
2023-03-16T02:47:22.036Z,40.49
2023-03-16T02:47:45.208Z,40.47
2023-03-16T02:48:14.565Z,40.49
2023-03-16T02:48:44.139Z,40.33
2023-03-16T02:49:11.736Z,40.07
2023-03-16T02:49:38.488Z,40.08
2023-03-16T02:50:00.615Z,40.01
2023-03-16T02:50:22.212Z,40.01
2023-03-16T02:50:47.119Z,39.87
2023-03-16T02:51:10.261Z,40.05
2023-03-16T02:51:33.191Z,39.95
2023-03-16T02:51:54.935Z,40.03
2023-03-16T02:52:17.279Z,40.15
2023-03-16T02:52:39.346Z,40.02
2023-03-16T02:53:01.951Z,40.01
2023-03-16T02:53:24.232Z,40.03
2023-03-16T02:53:45.888Z,40.03
2023-03-16T02:54:08.066Z,40.28
2023-03-16T02:54:31.046Z,40.23
2023-03-16T02:54:53.081Z,40.16
2023-03-16T02:55:15.320Z,40.33
2023-03-16T02:55:36.985Z,40.25
2023-03-16T02:55:58.974Z,40.21
2023-03-16T02:56:23.364Z,40.30
2023-03-16T02:56:45.703Z,40.24
2023-03-16T02:57:07.627Z,40.17
2023-03-16T02:57:30.037Z,40.14
2023-03-16T02:57:56.764Z,39.96
2023-03-16T02:58:19.252Z,40.08
2023-03-16T02:58:41.810Z,40.25
2023-03-16T02:59:08.855Z,40.33
2023-03-16T02:59:32.151Z,40.34
2023-03-16T02:59:53.890Z,40.28
2023-03-16T03:00:19.080Z,40.29
2023-03-16T03:00:45.532Z,40.27
2023-03-16T03:01:12.047Z,40.22
2023-03-16T03:01:34.952Z,40.26
2023-03-16T03:01:57.535Z,40.23
2023-03-16T03:02:19.510Z,40.29
2023-03-16T03:02:42.130Z,40.22
2023-03-16T03:03:05.606Z,40.05
2023-03-16T03:03:28.283Z,40.11
2023-03-16T03:03:50.549Z,39.99
2023-03-16T03:04:13.788Z,39.90
2023-03-16T03:04:36.763Z,39.84
2023-03-16T03:05:02.029Z,39.92
2023-03-16T03:05:24.297Z,39.99
2023-03-16T03:05:46.043Z,39.85
2023-03-16T03:06:08.793Z,39.79
2023-03-16T03:06:32.436Z,40.12
2023-03-16T03:06:55.763Z,39.97
2023-03-16T03:07:18.009Z,40.10
2023-03-16T03:07:53.216Z,40.19
2023-03-16T03:08:15.621Z,40.18
2023-03-16T03:08:38.523Z,40.07
2023-03-16T03:09:00.546Z,40.11
2023-03-16T03:09:22.211Z,40.34
2023-03-16T03:09:48.628Z,40.66
2023-03-16T03:10:11.584Z,40.77
2023-03-16T03:10:33.473Z,40.76
2023-03-16T03:10:55.227Z,40.60
2023-03-16T03:11:18.535Z,40.57
2023-03-16T03:11:42.330Z,40.50
2023-03-16T03:12:06.421Z,40.54
2023-03-16T03:12:29.295Z,40.53
2023-03-16T03:12:52.056Z,40.50
2023-03-16T03:13:13.747Z,40.59
2023-03-16T03:13:38.161Z,40.65
2023-03-16T03:14:05.261Z,40.90
2023-03-16T03:14:28.456Z,41.04
2023-03-16T03:14:50.092Z,40.98
2023-03-16T03:15:16.258Z,41.16
2023-03-16T03:15:52.773Z,41.28
2023-03-16T03:16:17.431Z,41.32
2023-03-16T03:16:40.469Z,41.35
2023-03-16T03:17:03.217Z,41.07
2023-03-16T03:17:30.389Z,41.08
2023-03-16T03:17:52.707Z,40.92
2023-03-16T03:18:15.701Z,40.80
2023-03-16T03:18:37.336Z,40.75
2023-03-16T03:18:59.454Z,40.80
2023-03-16T03:19:25.412Z,40.92
2023-03-16T03:19:48.029Z,40.85
2023-03-16T03:20:17.299Z,40.70
2023-03-16T03:20:39.059Z,40.70
2023-03-16T03:21:01.546Z,40.60
2023-03-16T03:21:24.884Z,40.67
2023-03-16T03:21:46.572Z,40.59
2023-03-16T03:22:09.461Z,40.65
2023-03-16T03:22:33.694Z,40.89
2023-03-16T03:22:55.280Z,40.97
2023-03-16T03:23:19.550Z,40.87
2023-03-16T03:23:42.008Z,40.72
2023-03-16T03:24:03.881Z,40.67
2023-03-16T03:24:27.956Z,40.85
2023-03-16T03:24:51.545Z,40.76
2023-03-16T03:25:14.958Z,40.63
2023-03-16T03:25:37.841Z,40.44
2023-03-16T03:26:01.072Z,40.39
2023-03-16T03:26:24.593Z,40.31
2023-03-16T03:26:46.895Z,40.21
2023-03-16T03:27:14.769Z,40.22
2023-03-16T03:27:38.286Z,40.33
2023-03-16T03:28:05.907Z,40.45
2023-03-16T03:28:27.724Z,40.51
2023-03-16T03:28:49.692Z,40.24
2023-03-16T03:29:11.624Z,40.37
2023-03-16T03:29:35.341Z,40.41
2023-03-16T03:29:58.236Z,40.59
2023-03-16T03:30:25.964Z,40.65
2023-03-16T03:30:47.822Z,40.64
2023-03-16T03:31:25.650Z,40.74
2023-03-16T03:31:47.558Z,40.69
2023-03-16T03:32:09.523Z,40.66
2023-03-16T03:32:31.253Z,40.70
2023-03-16T03:32:53.473Z,40.61
2023-03-16T03:33:17.168Z,40.78
2023-03-16T03:33:39.109Z,40.71
2023-03-16T03:34:06.385Z,40.79
2023-03-16T03:34:30.408Z,40.66
2023-03-16T03:34:54.033Z,40.70
2023-03-16T03:35:16.502Z,40.94
2023-03-16T03:35:38.279Z,40.89
2023-03-16T03:36:02.050Z,40.99
2023-03-16T03:36:29.774Z,41.12
2023-03-16T03:36:53.580Z,41.16
2023-03-16T03:37:15.175Z,41.15
2023-03-16T03:37:37.480Z,41.03
2023-03-16T03:38:00.410Z,40.77
2023-03-16T03:38:24.743Z,40.68
2023-03-16T03:38:46.372Z,40.61
2023-03-16T03:39:08.248Z,40.83
2023-03-16T03:39:31.846Z,40.64
2023-03-16T03:39:53.662Z,40.64
2023-03-16T03:40:17.322Z,40.64
2023-03-16T03:40:41.938Z,40.72
2023-03-16T03:41:07.323Z,40.90
2023-03-16T03:41:31.422Z,40.87
2023-03-16T03:41:56.048Z,40.63
2023-03-16T03:42:18.414Z,40.67
2023-03-16T03:42:43.855Z,40.71
2023-03-16T03:43:06.444Z,40.60
2023-03-16T03:43:32.344Z,40.68
2023-03-16T03:43:54.027Z,40.79
2023-03-16T03:44:16.693Z,40.76
2023-03-16T03:44:38.310Z,40.66
2023-03-16T03:44:59.924Z,40.71
2023-03-16T03:45:21.557Z,40.52
2023-03-16T03:45:44.320Z,40.44
2023-03-16T03:46:06.109Z,40.45
2023-03-16T03:46:30.903Z,40.75
2023-03-16T03:46:52.857Z,40.78
2023-03-16T03:47:16.151Z,40.79
2023-03-16T03:47:38.088Z,40.69
2023-03-16T03:48:00.408Z,40.71
2023-03-16T03:48:23.115Z,40.86
2023-03-16T03:48:44.735Z,40.61
2023-03-16T03:49:06.397Z,40.64
2023-03-16T03:49:29.979Z,40.65
2023-03-16T03:49:51.678Z,40.67
2023-03-16T03:50:14.790Z,40.61
2023-03-16T03:51:06.710Z,40.75
2023-03-16T03:51:40.985Z,40.68
2023-03-16T03:52:08.197Z,40.88
2023-03-16T03:52:29.899Z,40.79
2023-03-16T03:52:51.590Z,40.80
2023-03-16T03:53:13.243Z,40.94
2023-03-16T03:53:56.382Z,40.64
2023-03-16T03:54:31.144Z,40.51
2023-03-16T03:54:55.352Z,40.43
2023-03-16T03:55:18.590Z,40.39
2023-03-16T03:55:40.205Z,40.52
2023-03-16T03:56:01.782Z,40.43
2023-03-16T03:56:23.604Z,40.53
2023-03-16T03:56:45.228Z,40.49
2023-03-16T03:57:11.301Z,40.48
2023-03-16T03:57:33.370Z,40.29
2023-03-16T03:57:55.157Z,40.47
2023-03-16T03:58:17.013Z,40.52
2023-03-16T03:58:39.742Z,40.47
2023-03-16T03:59:01.603Z,40.46
2023-03-16T03:59:45.824Z,40.28
2023-03-16T04:00:27.364Z,40.31
2023-03-16T04:00:49.231Z,40.21
2023-03-16T04:01:10.919Z,40.44
2023-03-16T04:01:33.910Z,40.21
2023-03-16T04:01:56.680Z,40.35
2023-03-16T04:02:24.451Z,40.24
2023-03-16T04:02:49.414Z,40.41
2023-03-16T04:03:21.775Z,40.26
2023-03-16T04:03:45.755Z,40.39
2023-03-16T04:04:09.833Z,40.30
2023-03-16T04:04:31.505Z,40.27
2023-03-16T04:04:53.077Z,40.09
2023-03-16T04:05:15.878Z,39.99
2023-03-16T04:05:38.058Z,40.07
2023-03-16T04:06:00.029Z,40.01
2023-03-16T04:06:22.748Z,40.03
2023-03-16T04:06:45.699Z,40.22
2023-03-16T04:07:07.764Z,40.07
2023-03-16T04:07:29.456Z,40.14
2023-03-16T04:07:57.620Z,40.10
2023-03-16T04:08:19.574Z,40.04
2023-03-16T04:08:43.155Z,39.99
2023-03-16T04:09:10.953Z,40.03
2023-03-16T04:09:34.563Z,40.08
2023-03-16T04:09:57.115Z,40.11
2023-03-16T04:10:25.223Z,40.17
2023-03-16T04:10:51.386Z,40.22
2023-03-16T04:11:15.369Z,40.21
2023-03-16T04:11:39.361Z,40.44
2023-03-16T04:12:01.819Z,40.34
2023-03-16T04:12:23.838Z,40.28
2023-03-16T04:12:46.862Z,40.03
2023-03-16T04:13:09.317Z,40.19
2023-03-16T04:13:31.081Z,40.15
2023-03-16T04:13:53.410Z,40.18
2023-03-16T04:14:15.948Z,40.30
2023-03-16T04:14:40.003Z,40.37
2023-03-16T04:15:04.788Z,40.34
2023-03-16T04:15:33.975Z,40.01
2023-03-16T04:16:05.794Z,40.07
2023-03-16T04:16:35.978Z,39.97
2023-03-16T04:16:57.985Z,40.00
2023-03-16T04:17:20.564Z,39.89
2023-03-16T04:17:43.340Z,40.03
2023-03-16T04:18:06.352Z,39.88
2023-03-16T04:18:29.057Z,39.70
2023-03-16T04:18:51.750Z,39.60
2023-03-16T04:19:13.416Z,39.90
2023-03-16T04:19:35.757Z,39.90
2023-03-16T04:19:58.682Z,39.83
2023-03-16T04:20:20.723Z,39.94
2023-03-16T04:20:44.351Z,39.90
2023-03-16T04:21:14.701Z,39.98
2023-03-16T04:21:36.403Z,39.92
2023-03-16T04:21:58.076Z,39.90
2023-03-16T04:22:23.083Z,40.03
2023-03-16T04:22:46.425Z,39.95
2023-03-16T04:23:09.020Z,40.06
2023-03-16T04:23:33.898Z,40.11
2023-03-16T04:23:56.744Z,40.15
2023-03-16T04:24:25.950Z,40.09
2023-03-16T04:24:47.625Z,39.93
2023-03-16T04:25:11.407Z,39.88
2023-03-16T04:25:38.542Z,39.87
2023-03-16T04:26:01.587Z,39.87
2023-03-16T04:26:25.596Z,39.79
2023-03-16T04:26:48.607Z,39.86
2023-03-16T04:27:12.039Z,39.98
2023-03-16T04:27:36.497Z,39.97
2023-03-16T04:27:59.293Z,40.04
2023-03-16T04:28:26.298Z,40.07
2023-03-16T04:28:49.193Z,39.92
2023-03-16T04:29:14.578Z,40.01
2023-03-16T04:29:36.435Z,40.03
2023-03-16T04:29:59.626Z,39.85
2023-03-16T04:30:23.400Z,39.68
2023-03-16T04:30:49.573Z,39.67
2023-03-16T04:31:20.203Z,39.66
2023-03-16T04:31:44.634Z,39.93
2023-03-16T04:32:08.663Z,39.87
2023-03-16T04:32:31.639Z,39.68
2023-03-16T04:32:53.558Z,40.03
2023-03-16T04:33:16.592Z,40.30
2023-03-16T04:33:42.331Z,40.38
2023-03-16T04:34:04.001Z,40.46
2023-03-16T04:34:26.810Z,40.37
2023-03-16T04:34:55.749Z,40.59
2023-03-16T04:35:22.561Z,40.50
2023-03-16T04:35:48.805Z,40.59
2023-03-16T04:36:12.024Z,40.67
2023-03-16T04:36:34.220Z,40.53
2023-03-16T04:36:58.970Z,40.66
2023-03-16T04:37:20.677Z,40.56
2023-03-16T04:37:42.510Z,40.90
2023-03-16T04:38:05.278Z,40.97
2023-03-16T04:38:36.296Z,41.00
2023-03-16T04:38:57.926Z,40.72
2023-03-16T04:39:20.118Z,40.63
2023-03-16T04:39:43.196Z,40.64
2023-03-16T04:40:11.707Z,40.75
2023-03-16T04:40:35.900Z,40.75
2023-03-16T04:41:06.222Z,40.66
2023-03-16T04:41:32.305Z,40.74
2023-03-16T04:42:06.224Z,40.59
2023-03-16T04:42:27.967Z,40.53
2023-03-16T04:42:49.632Z,40.51
2023-03-16T04:43:14.582Z,40.65
2023-03-16T04:43:38.489Z,40.94
2023-03-16T04:44:06.551Z,40.90
2023-03-16T04:44:29.623Z,40.72
2023-03-16T04:44:51.902Z,40.67
2023-03-16T04:45:20.072Z,40.54
2023-03-16T04:45:44.245Z,40.76
2023-03-16T04:46:06.434Z,40.68
2023-03-16T04:46:30.137Z,40.63
2023-03-16T04:46:56.475Z,40.74
2023-03-16T04:47:20.438Z,40.81
2023-03-16T04:47:42.072Z,40.98
2023-03-16T04:48:05.043Z,41.06
2023-03-16T04:48:27.148Z,40.78
2023-03-16T04:48:48.755Z,40.60
2023-03-16T04:49:10.616Z,40.76
2023-03-16T04:49:34.434Z,40.66
2023-03-16T04:49:56.216Z,40.65
2023-03-16T04:50:18.678Z,40.61
2023-03-16T04:50:49.386Z,40.72
2023-03-16T04:51:11.624Z,40.73
2023-03-16T04:51:40.502Z,40.66
2023-03-16T04:52:05.273Z,40.80
2023-03-16T04:52:28.510Z,40.77
2023-03-16T04:52:50.195Z,40.98
2023-03-16T04:53:11.802Z,40.84
2023-03-16T04:53:33.757Z,40.73
2023-03-16T04:54:03.134Z,40.82
2023-03-16T04:54:29.164Z,40.75
2023-03-16T04:54:51.679Z,40.69
2023-03-16T04:55:15.107Z,40.82
2023-03-16T04:55:37.885Z,40.68
2023-03-16T04:56:00.203Z,40.84
2023-03-16T04:56:22.001Z,40.59
2023-03-16T04:56:49.578Z,40.56
2023-03-16T04:57:35.245Z,40.66
2023-03-16T04:57:57.282Z,40.60
2023-03-16T04:58:19.545Z,40.60
2023-03-16T04:58:42.820Z,40.60
2023-03-16T04:59:05.623Z,40.73
2023-03-16T04:59:37.374Z,40.51
2023-03-16T05:00:14.919Z,40.67
2023-03-16T05:00:45.520Z,40.66
2023-03-16T05:01:17.092Z,40.73
2023-03-16T05:01:39.363Z,40.78
2023-03-16T05:02:04.014Z,40.86
2023-03-16T05:02:26.663Z,40.64
2023-03-16T05:02:51.783Z,40.60
2023-03-16T05:03:14.132Z,40.53
2023-03-16T05:03:38.649Z,40.70
2023-03-16T05:04:00.347Z,40.73
2023-03-16T05:04:24.928Z,40.79
2023-03-16T05:04:47.088Z,40.67
2023-03-16T05:05:10.196Z,40.84
2023-03-16T05:05:39.427Z,40.84
2023-03-16T05:06:01.413Z,40.97
2023-03-16T05:06:25.759Z,40.67
2023-03-16T05:06:48.915Z,40.73
2023-03-16T05:07:13.366Z,40.68
2023-03-16T05:07:39.274Z,40.72
2023-03-16T05:08:01.499Z,40.83
2023-03-16T05:08:26.127Z,40.72
2023-03-16T05:08:49.261Z,40.72
2023-03-16T05:09:11.789Z,40.85
2023-03-16T05:09:34.784Z,40.73
2023-03-16T05:09:57.326Z,40.52
2023-03-16T05:10:19.292Z,40.72
2023-03-16T05:10:42.464Z,40.76
2023-03-16T05:11:04.174Z,40.80
2023-03-16T05:11:31.290Z,40.77
2023-03-16T05:11:56.208Z,40.86
2023-03-16T05:12:18.500Z,40.72
2023-03-16T05:12:43.623Z,40.85
2023-03-16T05:13:06.403Z,41.05
2023-03-16T05:13:28.734Z,40.85
2023-03-16T05:13:53.547Z,40.67
2023-03-16T05:14:17.513Z,40.83
2023-03-16T05:15:04.733Z,40.91
2023-03-16T05:15:37.176Z,40.96